To NAV CANADA Home Page Login to a new session Search on AWWS site Feedback and Comments Disclaimer Vers la page française équivalente Tips FAQ What's new on the site To the Forecasts and Observations / NOTAM section To "File a Flight Plan" website Publications and other links Update of the User's profile FIC Telephone Numbers My Weather Data Folder Route Weather Data Regional Weather Data Local Weather Data To the Forecasts and Observations / NOTAM section
Request Generated 08/30/2016 at 03:06:15 UTC . Weather information available at that time is displayed.


Go to a specific product

Save this request

NOTAM

NOTAM


SIGMET
To the Product Selector

SIGMETS GFACN32

WSCN32 CWEG 300221
SIGMET A1 VALID 300220/300620 CWEG-
CZEG EDMONTON FIR FRQ TS OBS WTN 15 NM OF LINE /N4942 W11442/45 E CYXC - /N4904
W11328/45 SW CYQL TOP FL380 MOV NE 15KT NC
RMK GFACN32 GFACN31=
END/WSCN22/CWAO

WSCN32 CWEG 300223
SIGMET D1 VALID 300220/300620 CWEG-
CZEG EDMONTON FIR FRQ TSGR OBS WTN 15 NM OF /N5053 W11428/20 SW CYYC TOP FL360
MOV NE 10KT NC
RMK GFACN32=
END/WSCN22/CWAO



AIRMET
To the Product Selector

AIRMETS GFACN32

WACN32 CWEG 292338
AIRMET A3 VALID 292220/300220 CWEG-
CZEG EDMONTON FIR CNCL AIRMET A2 292220/300220
RMK GFACN32 GFACN31/CZVR VANCOUVER FIR AIRMET C3=
END/WACN22/CWAO

WACN32 CWEG 292338
AIRMET C3 VALID 292220/300220 CWEG-
CZVR VANCOUVER FIR CNCL AIRMET C2 292220/300220
RMK GFACN32 GFACN31/CZEG EDMONTON FIR AIRMET A3=
END/WACN21/CWAO



PIREP
To the Product Selector

FIR_WINNIPEG (WG)

WG - PIREP not available



METAR/TAF
To the Product Selector

REGINA/REGINA INTL/SK    

METAR CYQR 300300Z 04008KT 15SM FEW074 BKN280 15/08 A3024 RMK AC2CI4
SLP254 DENSITY ALT 1900FT=
METAR CYQR 300200Z 04005KT 15SM SCT078 BKN280 18/07 A3022 RMK AC3CI3
SLP248 DENSITY ALT 2300FT=
METAR CYQR 300100Z 00000KT 15SM FEW080 BKN280 20/06 A3022 RMK AC2CI5
SLP250 DENSITY ALT 2500FT=

TAF CYQR 292338Z 3000/3024 VRB03KT P6SM FEW080 SCT280
BECMG 3002/3004 14010KT
RMK NXT FCST BY 300600Z=

MOOSE JAW/AIR VICE MARSHAL C.M. MCEWEN/SK    

METAR CYMJ 300000Z 11005KT 15SM SCT075 BKN300 22/08 A3022 RMK AC4CI1 LAST OBS/NEXT 301000 UTC SLP243=

TAF AMD CYMJ 300009Z 3000/3012 FCST CNCLD DUE END OF FLYING PROGRAM
RMK NXT FCST WILL BE ISSUED AT 301115Z=


RADAR PCPN RATE
To the Product Selector
Pacific Canada      Western Canada     

SATELLITE VISIBLE
To the Product Selector
West Canada      

SATELLITE INFRARED
To the Product Selector
West Canada     

GRAPHICAL FA CLOUDS & WEATHER FORECASTS
To the Product Selector
Graphical FA gfacn32      

GRAPHICAL FA ICING, TURBULENCE & FREEZING LEVEL FORECASTS
To the Product Selector
Graphical FA gfacn32      

FDTEXT Low Level FD. Temperatures are not forecast for the 3,000-foot level.
To the Product Selector
STN YQR - REGINA. SASK for use 3000 6000 9000 12000 18000
FDCN01 CWAO FCST BASED ON 300000 DATA VALID 300600 05-09 2608+13 2611+07 2920+03 2930-09
FDCN02 CWAO FCST BASED ON 300000 DATA VALID 301200 09-18 2108+14 2515+08 2821+03 2923-10
FDCN03 CWAO FCST BASED ON 300000 DATA VALID 310000 18-05 1612+16 2114+10 2723+03 3021-09



Your time UTC time
Weather data provided by Environment Canada and NAV CANADA